createdAt,value
2023-02-06T00:00:58.045Z,8.97
2023-02-06T00:03:29.045Z,8.30
2023-02-06T00:05:57.882Z,6.53
2023-02-06T00:08:26.067Z,7.03
2023-02-06T00:10:54.231Z,7.23
2023-02-06T00:13:22.603Z,6.57
2023-02-06T00:15:50.687Z,7.07
2023-02-06T00:18:18.753Z,7.40
2023-02-06T00:20:48.390Z,7.10
2023-02-06T00:23:16.662Z,7.77
2023-02-06T00:25:45.793Z,7.27
2023-02-06T00:28:13.883Z,6.33
2023-02-06T00:30:41.799Z,6.03
2023-02-06T00:33:09.480Z,8.40
2023-02-06T00:35:37.337Z,7.93
2023-02-06T00:38:07.209Z,7.00
2023-02-06T00:40:34.877Z,7.90
2023-02-06T00:43:02.569Z,7.57
2023-02-06T00:45:30.348Z,7.23
2023-02-06T00:47:58.370Z,8.67
2023-02-06T00:50:26.036Z,7.10
2023-02-06T00:52:53.738Z,7.23
2023-02-06T00:55:23.484Z,5.93
2023-02-06T00:57:51.202Z,7.47
2023-02-06T01:00:19.127Z,5.50
2023-02-06T01:02:46.873Z,6.33
2023-02-06T01:05:14.772Z,6.33
2023-02-06T01:07:42.612Z,7.43
2023-02-06T01:10:11.686Z,6.27
2023-02-06T01:12:42.028Z,6.27
2023-02-06T01:15:12.695Z,5.20
2023-02-06T01:17:41.682Z,7.97
2023-02-06T01:20:12.167Z,7.83
2023-02-06T01:22:40.129Z,6.33
2023-02-06T01:25:08.600Z,7.67
2023-02-06T01:27:37.725Z,6.77
2023-02-06T01:30:09.057Z,6.17
2023-02-06T01:32:38.339Z,5.83
2023-02-06T01:35:07.292Z,5.43
2023-02-06T01:37:36.825Z,7.30
2023-02-06T01:40:05.553Z,5.60
2023-02-06T01:42:37.055Z,5.63
2023-02-06T01:45:40.367Z,6.27
2023-02-06T01:48:12.023Z,5.93
2023-02-06T01:50:44.315Z,6.97
2023-02-06T01:53:14.065Z,7.93
2023-02-06T01:55:45.101Z,7.13
2023-02-06T01:58:17.170Z,6.87
2023-02-06T02:00:47.088Z,6.90
2023-02-06T02:03:15.426Z,6.70
2023-02-06T02:05:44.478Z,6.40
2023-02-06T02:08:18.617Z,6.50
2023-02-06T02:10:46.841Z,5.77
2023-02-06T02:13:15.901Z,5.50
2023-02-06T02:15:59.367Z,4.80
2023-02-06T02:18:39.343Z,6.13
2023-02-06T02:21:43.989Z,4.97
2023-02-06T02:24:19.253Z,6.03
2023-02-06T02:27:28.603Z,6.23
2023-02-06T02:30:32.187Z,6.27
2023-02-06T02:33:37.960Z,6.10
2023-02-06T02:36:15.848Z,4.57
2023-02-06T02:38:55.071Z,5.60
2023-02-06T02:41:28.932Z,6.23
2023-02-06T02:44:04.801Z,5.37
2023-02-06T02:46:36.407Z,5.70
2023-02-06T02:49:06.889Z,5.47
2023-02-06T02:51:38.644Z,5.60
2023-02-06T02:54:06.643Z,5.70
2023-02-06T02:56:35.965Z,5.57
2023-02-06T02:59:08.507Z,5.87
2023-02-06T03:01:43.180Z,6.37
2023-02-06T03:04:16.957Z,7.20
2023-02-06T03:07:00.551Z,6.77
2023-02-06T03:09:47.532Z,6.13
2023-02-06T03:12:23.064Z,6.67
2023-02-06T03:14:55.681Z,6.47
2023-02-06T03:17:31.475Z,6.60
2023-02-06T03:20:01.361Z,6.50
2023-02-06T03:22:33.458Z,6.47
2023-02-06T03:25:02.721Z,6.57
2023-02-06T03:27:33.410Z,5.70
2023-02-06T03:30:02.052Z,5.10
2023-02-06T03:32:32.858Z,7.90
2023-02-06T03:35:04.154Z,9.97
2023-02-06T03:37:33.958Z,8.27
2023-02-06T03:40:04.270Z,8.47
2023-02-06T03:42:34.850Z,6.43
2023-02-06T03:45:06.885Z,5.00
2023-02-06T03:47:36.294Z,5.27
2023-02-06T03:50:04.745Z,6.20
2023-02-06T03:52:39.516Z,6.90
2023-02-06T03:55:11.442Z,5.27
2023-02-06T03:57:43.394Z,5.77
2023-02-06T04:00:13.159Z,5.33
2023-02-06T04:02:41.746Z,5.97
2023-02-06T04:05:10.053Z,5.83
2023-02-06T04:07:39.713Z,6.23
2023-02-06T04:10:07.964Z,6.10
2023-02-06T04:12:36.452Z,7.03
2023-02-06T04:15:04.852Z,6.90
2023-02-06T04:17:53.481Z,5.97
2023-02-06T04:20:22.207Z,6.23
2023-02-06T04:22:51.915Z,6.27
2023-02-06T04:25:20.136Z,8.27
2023-02-06T04:27:48.087Z,6.40
2023-02-06T04:30:17.918Z,6.40
2023-02-06T04:32:45.693Z,6.57
2023-02-06T04:35:13.604Z,5.50
2023-02-06T04:37:41.483Z,9.30
2023-02-06T04:40:12.659Z,7.27
2023-02-06T04:42:40.545Z,6.47
2023-02-06T04:45:10.265Z,9.50
2023-02-06T04:47:37.972Z,7.53
2023-02-06T04:50:06.613Z,9.23
2023-02-06T04:52:34.534Z,18.13
2023-02-06T04:55:02.440Z,5.73
2023-02-06T04:57:31.608Z,4.87
2023-02-06T04:59:59.342Z,13.67
2023-02-06T05:02:28.474Z,11.67
2023-02-06T05:04:56.178Z,7.37
2023-02-06T05:07:25.205Z,10.83
2023-02-06T05:09:54.307Z,5.57
2023-02-06T05:12:22.198Z,8.00
2023-02-06T05:14:53.178Z,5.17
2023-02-06T05:17:20.982Z,5.07
2023-02-06T05:19:48.976Z,8.63
2023-02-06T05:22:16.751Z,5.50
2023-02-06T05:24:44.417Z,9.30
2023-02-06T05:27:12.221Z,5.07
2023-02-06T05:29:40.119Z,4.93
2023-02-06T05:32:10.341Z,5.33
2023-02-06T05:34:39.408Z,6.93
2023-02-06T05:37:07.398Z,5.83
2023-02-06T05:39:35.173Z,7.67
2023-02-06T05:42:03.038Z,7.03
2023-02-06T05:44:30.833Z,10.40
2023-02-06T05:46:58.584Z,5.17
2023-02-06T05:49:28.188Z,13.33
2023-02-06T05:51:55.943Z,5.87
2023-02-06T05:54:24.024Z,6.77
2023-02-06T05:56:52.211Z,8.13
2023-02-06T05:59:20.105Z,7.97
2023-02-06T06:01:48.030Z,4.83
2023-02-06T06:04:15.801Z,5.13
2023-02-06T06:06:45.277Z,7.87
2023-02-06T06:09:13.157Z,8.63
2023-02-06T06:11:40.855Z,6.47
2023-02-06T06:14:08.661Z,4.43
2023-02-06T06:16:36.616Z,5.57
2023-02-06T06:19:04.835Z,5.33
2023-02-06T06:21:34.008Z,5.53
2023-02-06T06:24:03.789Z,7.50
2023-02-06T06:26:31.905Z,6.53
2023-02-06T06:28:59.687Z,6.77
2023-02-06T06:31:29.025Z,8.03
2023-02-06T06:33:57.245Z,11.73
2023-02-06T06:36:24.911Z,9.13
2023-02-06T06:38:52.807Z,6.87
2023-02-06T06:41:23.216Z,7.93
2023-02-06T06:43:51.706Z,5.67
2023-02-06T06:46:19.971Z,6.97
2023-02-06T06:48:49.175Z,7.50
2023-02-06T06:51:16.929Z,7.10
2023-02-06T06:53:44.748Z,13.07
2023-02-06T06:56:15.367Z,10.80
2023-02-06T06:58:45.019Z,6.47
2023-02-06T07:01:13.191Z,8.17
2023-02-06T07:03:44.372Z,9.07
2023-02-06T07:06:12.931Z,8.03
2023-02-06T07:08:41.938Z,8.77
2023-02-06T07:11:09.848Z,6.73
2023-02-06T07:13:38.165Z,6.63
2023-02-06T07:16:08.493Z,8.23
2023-02-06T07:18:38.569Z,10.20
2023-02-06T07:21:08.891Z,7.40
2023-02-06T07:23:38.233Z,7.87
2023-02-06T07:26:07.596Z,7.13
2023-02-06T07:28:35.946Z,7.97
2023-02-06T07:31:05.572Z,6.20
2023-02-06T07:33:36.226Z,6.50
2023-02-06T07:36:04.375Z,7.50
2023-02-06T07:38:32.521Z,7.60
2023-02-06T07:41:02.591Z,8.33
2023-02-06T07:43:30.922Z,7.93
2023-02-06T07:46:01.218Z,7.73
2023-02-06T07:48:29.407Z,6.20
2023-02-06T07:50:59.137Z,6.00
2023-02-06T07:53:27.112Z,5.67
2023-02-06T07:55:55.349Z,6.27
2023-02-06T07:58:23.256Z,6.27
2023-02-06T08:00:51.275Z,4.87
2023-02-06T08:03:21.024Z,5.33
2023-02-06T08:05:49.352Z,11.70
2023-02-06T08:08:19.920Z,8.30
2023-02-06T08:10:48.625Z,6.07
2023-02-06T08:13:16.451Z,10.67
2023-02-06T08:15:45.364Z,6.07
2023-02-06T08:18:13.070Z,9.63
2023-02-06T08:20:40.737Z,8.00
2023-02-06T08:23:08.724Z,5.23
2023-02-06T08:25:39.281Z,5.13
2023-02-06T08:28:07.060Z,6.87
2023-02-06T08:30:37.020Z,6.30
2023-02-06T08:33:05.183Z,5.40
2023-02-06T08:35:33.056Z,5.10
2023-02-06T08:38:02.152Z,5.70
2023-02-06T08:40:29.948Z,5.97
2023-02-06T08:42:59.293Z,5.60
2023-02-06T08:45:27.411Z,5.30
2023-02-06T08:47:55.294Z,5.83
2023-02-06T08:50:22.936Z,6.10
2023-02-06T08:52:50.985Z,5.40
2023-02-06T08:55:20.047Z,6.07
2023-02-06T08:57:52.937Z,6.43
2023-02-06T09:00:24.229Z,8.33
2023-02-06T09:02:53.673Z,8.40
2023-02-06T09:05:21.874Z,7.40
2023-02-06T09:07:50.672Z,7.33
2023-02-06T09:10:27.443Z,7.77
2023-02-06T09:12:55.980Z,7.97
2023-02-06T09:15:25.427Z,6.60
2023-02-06T09:17:53.199Z,7.33
2023-02-06T09:20:21.445Z,6.57
2023-02-06T09:22:49.681Z,8.30
2023-02-06T09:25:17.454Z,6.47
2023-02-06T09:27:46.812Z,7.63
2023-02-06T09:30:15.840Z,7.53
2023-02-06T09:32:45.958Z,8.10
2023-02-06T09:35:13.982Z,7.60
2023-02-06T09:37:43.289Z,6.83
2023-02-06T09:40:14.405Z,8.53
2023-02-06T09:42:43.219Z,7.90
2023-02-06T09:45:16.101Z,8.50
2023-02-06T09:47:49.675Z,7.57
2023-02-06T09:50:25.172Z,7.80
2023-02-06T09:53:06.808Z,8.03
2023-02-06T09:55:41.069Z,7.87
2023-02-06T09:58:19.260Z,8.23
2023-02-06T10:00:53.132Z,11.17
2023-02-06T10:03:49.086Z,8.97
2023-02-06T10:06:21.802Z,10.47
2023-02-06T10:08:58.160Z,10.80
2023-02-06T10:11:41.723Z,9.93
2023-02-06T10:14:19.134Z,11.17
2023-02-06T10:16:50.344Z,11.10
2023-02-06T10:19:25.122Z,12.10
2023-02-06T10:21:56.648Z,10.57
2023-02-06T10:24:34.398Z,9.20
2023-02-06T10:27:10.815Z,7.73
2023-02-06T10:29:38.891Z,9.47
2023-02-06T10:32:20.548Z,9.67
2023-02-06T10:35:24.650Z,9.43
2023-02-06T10:38:17.096Z,9.07
2023-02-06T10:40:52.695Z,10.73
2023-02-06T10:43:30.306Z,8.50
2023-02-06T10:46:06.967Z,9.73
2023-02-06T10:48:44.594Z,8.53
2023-02-06T10:51:21.693Z,10.00
2023-02-06T10:53:51.442Z,9.10
2023-02-06T10:56:22.564Z,8.60
2023-02-06T10:58:55.298Z,8.20
2023-02-06T11:01:26.686Z,8.57
2023-02-06T11:04:01.174Z,6.83
2023-02-06T11:06:31.411Z,7.83
2023-02-06T11:08:59.384Z,7.40
2023-02-06T11:11:29.889Z,7.20
2023-02-06T11:14:01.576Z,6.93
2023-02-06T11:16:31.283Z,6.73
2023-02-06T11:19:10.004Z,6.60
2023-02-06T11:21:54.621Z,6.80
2023-02-06T11:24:24.377Z,7.97
2023-02-06T11:26:55.398Z,6.43
2023-02-06T11:29:26.452Z,7.60
2023-02-06T11:31:59.522Z,7.33
2023-02-06T11:34:31.186Z,8.73
2023-02-06T11:37:03.031Z,7.77
2023-02-06T11:39:32.647Z,8.13
2023-02-06T11:42:03.980Z,9.43
2023-02-06T11:44:38.292Z,9.13
2023-02-06T11:47:22.664Z,10.10
2023-02-06T11:49:51.666Z,9.67
2023-02-06T11:52:31.608Z,10.00
2023-02-06T11:55:02.281Z,9.30
2023-02-06T11:57:33.695Z,9.53
2023-02-06T12:00:06.212Z,10.23
2023-02-06T12:02:35.699Z,10.07
2023-02-06T12:05:08.087Z,8.90
2023-02-06T12:07:40.310Z,9.40
2023-02-06T12:10:15.375Z,9.00
2023-02-06T12:12:46.877Z,9.50
2023-02-06T12:15:46.194Z,9.73
2023-02-06T12:18:11.681Z,9.10
2023-02-06T12:20:49.450Z,10.20
2023-02-06T12:23:25.824Z,9.47
2023-02-06T12:25:56.613Z,9.60
2023-02-06T12:28:28.116Z,9.03
2023-02-06T12:30:58.838Z,7.90
2023-02-06T12:33:34.806Z,9.27
2023-02-06T12:36:06.279Z,8.93
2023-02-06T12:38:42.775Z,10.00
2023-02-06T12:41:24.955Z,8.83
2023-02-06T12:43:59.096Z,7.93
2023-02-06T12:46:29.403Z,8.80
2023-02-06T12:49:03.814Z,8.00
2023-02-06T12:51:37.357Z,7.20
2023-02-06T12:54:14.814Z,6.53
2023-02-06T12:56:47.702Z,7.07
2023-02-06T12:59:34.872Z,7.37
2023-02-06T13:02:16.935Z,7.17
2023-02-06T13:04:47.149Z,6.80
2023-02-06T13:07:17.979Z,6.83
2023-02-06T13:09:52.273Z,6.70
2023-02-06T13:12:22.832Z,6.50
2023-02-06T13:14:54.173Z,7.17
2023-02-06T13:17:23.992Z,6.67
2023-02-06T13:20:04.045Z,7.40
2023-02-06T13:22:45.011Z,7.10
2023-02-06T13:25:52.880Z,7.17
2023-02-06T13:29:09.642Z,7.63
2023-02-06T13:31:39.537Z,7.57
2023-02-06T13:34:16.192Z,7.63
2023-02-06T13:36:55.925Z,7.77
2023-02-06T13:39:30.824Z,7.27
2023-02-06T13:42:03.876Z,7.83
2023-02-06T13:44:36.447Z,8.07
2023-02-06T13:47:46.994Z,7.40
2023-02-06T13:50:48.618Z,7.53
2023-02-06T13:53:32.355Z,7.93
2023-02-06T13:56:21.215Z,6.67
2023-02-06T13:58:50.939Z,7.17
2023-02-06T14:01:23.045Z,7.10
2023-02-06T14:03:56.306Z,7.53
2023-02-06T14:07:01.339Z,8.00
2023-02-06T14:09:59.671Z,7.20
2023-02-06T14:12:45.540Z,7.23
2023-02-06T14:15:23.026Z,7.30
2023-02-06T14:18:04.448Z,7.27
2023-02-06T14:20:44.303Z,9.10
2023-02-06T14:23:21.195Z,6.70
2023-02-06T14:26:02.923Z,7.03
2023-02-06T14:28:44.312Z,7.13
2023-02-06T14:31:23.066Z,6.63
2023-02-06T14:34:05.174Z,6.40
2023-02-06T14:36:59.874Z,6.93
2023-02-06T14:39:53.073Z,6.13
2023-02-06T14:42:23.827Z,5.50
2023-02-06T14:44:57.240Z,5.80
2023-02-06T14:47:28.587Z,5.10
2023-02-06T14:49:58.838Z,4.93
2023-02-06T14:52:31.366Z,5.17
2023-02-06T14:54:59.116Z,4.50
2023-02-06T14:57:30.474Z,4.83
2023-02-06T15:00:00.254Z,3.80
2023-02-06T15:02:31.527Z,3.67
2023-02-06T15:05:00.395Z,4.13
2023-02-06T15:07:32.524Z,4.40
2023-02-06T15:10:05.700Z,4.03
2023-02-06T15:12:34.371Z,3.70
2023-02-06T15:15:05.628Z,4.40
2023-02-06T15:17:34.551Z,3.83
2023-02-06T15:20:26.142Z,3.60
2023-02-06T15:23:08.002Z,4.57
2023-02-06T15:26:04.471Z,4.20
2023-02-06T15:28:34.172Z,4.03
2023-02-06T15:31:02.582Z,4.30
2023-02-06T15:33:32.462Z,4.17
2023-02-06T15:36:03.052Z,4.57
2023-02-06T15:38:34.068Z,4.20
2023-02-06T15:41:05.035Z,4.50
2023-02-06T15:43:34.271Z,4.90
2023-02-06T15:46:05.616Z,4.30
2023-02-06T15:48:37.645Z,4.57
2023-02-06T15:51:20.334Z,4.67
2023-02-06T15:53:51.133Z,5.07
2023-02-06T15:56:24.397Z,4.07
2023-02-06T15:58:59.221Z,4.00
2023-02-06T16:01:28.897Z,4.53
2023-02-06T16:04:01.425Z,4.30
2023-02-06T16:06:29.439Z,4.70
2023-02-06T16:09:01.332Z,7.13
2023-02-06T16:11:51.054Z,13.67
2023-02-06T16:14:22.599Z,8.80
2023-02-06T16:16:58.624Z,11.80
2023-02-06T16:19:38.924Z,14.43
2023-02-06T16:22:14.948Z,10.73
2023-02-06T16:24:44.835Z,9.77
2023-02-06T16:27:21.689Z,7.17
2023-02-06T16:29:52.623Z,5.97
2023-02-06T16:32:24.445Z,6.37
2023-02-06T16:34:52.711Z,5.27
2023-02-06T16:37:22.459Z,6.30
2023-02-06T16:39:51.799Z,6.00
2023-02-06T16:42:21.913Z,7.07
2023-02-06T16:44:52.814Z,5.60
2023-02-06T16:47:23.784Z,5.97
2023-02-06T16:49:52.408Z,5.40
2023-02-06T16:52:23.447Z,7.07
2023-02-06T16:54:55.702Z,5.60
2023-02-06T16:57:28.973Z,5.10
2023-02-06T16:59:57.723Z,4.70
2023-02-06T17:02:27.392Z,4.67
2023-02-06T17:04:55.420Z,5.47
2023-02-06T17:07:26.067Z,5.43
2023-02-06T17:09:56.845Z,4.60
2023-02-06T17:12:25.902Z,4.80
2023-02-06T17:14:55.201Z,5.60
2023-02-06T17:17:24.562Z,5.33
2023-02-06T17:19:53.436Z,5.43
2023-02-06T17:22:21.519Z,5.67
2023-02-06T17:24:49.352Z,6.50
2023-02-06T17:27:20.695Z,7.07
2023-02-06T17:29:50.544Z,5.47
2023-02-06T17:32:22.179Z,4.80
2023-02-06T17:34:51.472Z,5.50
2023-02-06T17:37:21.613Z,5.40
2023-02-06T17:39:50.545Z,5.73
2023-02-06T17:42:22.147Z,5.90
2023-02-06T17:44:50.144Z,5.57
2023-02-06T17:47:18.344Z,6.10
2023-02-06T17:49:46.942Z,6.03
2023-02-06T17:52:14.876Z,6.40
2023-02-06T17:54:42.754Z,7.27
2023-02-06T17:57:10.491Z,8.33
2023-02-06T17:59:39.797Z,6.77
2023-02-06T18:02:07.841Z,7.50
2023-02-06T18:04:36.460Z,7.13
2023-02-06T18:07:05.468Z,7.30
2023-02-06T18:09:33.246Z,6.53
2023-02-06T18:12:01.688Z,7.23
2023-02-06T18:14:29.429Z,6.93
2023-02-06T18:16:59.055Z,6.07
2023-02-06T18:19:27.028Z,6.00
2023-02-06T18:21:56.553Z,5.80
2023-02-06T18:24:24.297Z,7.60
2023-02-06T18:26:52.141Z,7.90
2023-02-06T18:29:20.088Z,8.90
2023-02-06T18:31:48.116Z,8.67
2023-02-06T18:34:19.594Z,9.67
2023-02-06T18:36:48.184Z,8.57
2023-02-06T18:39:16.076Z,9.57
2023-02-06T18:42:01.649Z,8.10
2023-02-06T18:44:31.237Z,8.97
2023-02-06T18:46:59.013Z,8.07
2023-02-06T18:49:28.544Z,6.70
2023-02-06T18:51:56.308Z,5.77
2023-02-06T18:54:23.940Z,6.07
2023-02-06T18:56:51.880Z,6.50
2023-02-06T18:59:19.978Z,6.60
2023-02-06T19:01:48.081Z,6.17
2023-02-06T19:04:16.681Z,6.80
2023-02-06T19:06:46.485Z,6.90
2023-02-06T19:09:15.341Z,6.63
2023-02-06T19:11:43.956Z,6.00
2023-02-06T19:14:15.198Z,6.67
2023-02-06T19:16:44.957Z,6.60
2023-02-06T19:19:13.548Z,5.87
2023-02-06T19:21:41.283Z,9.50
2023-02-06T19:24:13.062Z,11.23
2023-02-06T19:26:41.553Z,10.70
2023-02-06T19:29:10.328Z,12.47
2023-02-06T19:31:40.695Z,9.27
2023-02-06T19:34:10.235Z,7.97
2023-02-06T19:36:38.336Z,7.40
2023-02-06T19:39:09.573Z,6.70
2023-02-06T19:41:39.048Z,7.23
2023-02-06T19:44:08.597Z,6.93
2023-02-06T19:46:36.950Z,6.60
2023-02-06T19:49:08.681Z,8.17
2023-02-06T19:51:39.561Z,7.30
2023-02-06T19:54:07.997Z,7.37
2023-02-06T19:56:39.687Z,7.50
2023-02-06T19:59:13.746Z,7.03
2023-02-06T20:01:41.765Z,6.97
2023-02-06T20:04:11.990Z,6.00
2023-02-06T20:06:40.211Z,5.90
2023-02-06T20:09:08.005Z,6.30
2023-02-06T20:11:36.012Z,5.70
2023-02-06T20:14:06.422Z,5.90
2023-02-06T20:16:36.886Z,6.90
2023-02-06T20:19:09.044Z,6.13
2023-02-06T20:21:39.342Z,6.23
2023-02-06T20:24:11.126Z,6.97
2023-02-06T20:26:40.511Z,6.70
2023-02-06T20:29:10.915Z,7.50
2023-02-06T20:31:39.871Z,7.13
2023-02-06T20:34:08.115Z,7.40
2023-02-06T20:36:35.979Z,7.87
2023-02-06T20:39:04.165Z,8.10
2023-02-06T20:41:33.571Z,7.13
2023-02-06T20:44:03.965Z,7.00
2023-02-06T20:46:35.079Z,7.20
2023-02-06T20:49:04.954Z,7.47
2023-02-06T20:51:33.487Z,7.43
2023-02-06T20:54:01.346Z,7.30
2023-02-06T20:56:30.605Z,7.00
2023-02-06T20:59:01.066Z,6.73
2023-02-06T21:01:30.946Z,7.63
2023-02-06T21:04:02.816Z,10.03
2023-02-06T21:06:32.046Z,9.93
2023-02-06T21:09:01.452Z,10.43
2023-02-06T21:11:30.547Z,9.37
2023-02-06T21:13:59.520Z,8.73
2023-02-06T21:16:28.093Z,8.73
2023-02-06T21:18:57.635Z,8.87
2023-02-06T21:21:27.169Z,8.27
2023-02-06T21:23:56.941Z,7.93
2023-02-06T21:26:25.390Z,8.90
2023-02-06T21:28:53.830Z,10.00
2023-02-06T21:31:23.873Z,7.93
2023-02-06T21:33:52.866Z,8.13
2023-02-06T21:36:21.398Z,7.87
2023-02-06T21:38:50.866Z,8.93
2023-02-06T21:41:19.874Z,10.03
2023-02-06T21:43:48.100Z,9.33
2023-02-06T21:46:15.912Z,9.80
2023-02-06T21:48:44.088Z,8.97
2023-02-06T21:51:13.890Z,10.30
2023-02-06T21:53:43.594Z,10.73
2023-02-06T21:56:16.416Z,9.90
2023-02-06T21:58:44.256Z,11.03
2023-02-06T22:01:15.293Z,11.03
2023-02-06T22:03:44.638Z,11.97
2023-02-06T22:06:13.640Z,12.80
2023-02-06T22:08:45.423Z,11.13
2023-02-06T22:11:22.634Z,11.27
2023-02-06T22:13:51.346Z,10.43
2023-02-06T22:16:22.317Z,11.83
2023-02-06T22:18:50.950Z,13.77
2023-02-06T22:21:21.597Z,12.37
2023-02-06T22:23:51.253Z,12.63
2023-02-06T22:26:22.102Z,9.77
2023-02-06T22:28:50.174Z,10.77
2023-02-06T22:31:19.775Z,10.80
2023-02-06T22:33:48.501Z,10.03
2023-02-06T22:36:18.732Z,10.37
2023-02-06T22:38:48.442Z,10.27
2023-02-06T22:41:18.133Z,10.17
2023-02-06T22:43:50.013Z,9.70
2023-02-06T22:46:20.550Z,9.77
2023-02-06T22:48:48.628Z,9.57
2023-02-06T22:51:16.552Z,8.67
2023-02-06T22:53:44.861Z,9.23
2023-02-06T22:56:31.267Z,9.20
2023-02-06T22:59:02.418Z,8.37
2023-02-06T23:01:34.618Z,8.20
2023-02-06T23:04:04.079Z,7.23
2023-02-06T23:06:33.593Z,7.70
2023-02-06T23:09:02.259Z,8.27
2023-02-06T23:11:31.809Z,7.87
2023-02-06T23:14:03.393Z,8.30
2023-02-06T23:16:37.528Z,9.33
2023-02-06T23:19:06.703Z,9.80
2023-02-06T23:21:38.555Z,9.40
2023-02-06T23:24:08.297Z,8.50
2023-02-06T23:26:36.717Z,8.70
2023-02-06T23:29:08.686Z,9.37
2023-02-06T23:31:38.486Z,8.90
2023-02-06T23:34:06.210Z,8.27
2023-02-06T23:36:34.486Z,8.43
2023-02-06T23:39:02.844Z,8.73
2023-02-06T23:41:31.880Z,8.73
2023-02-06T23:44:01.738Z,8.17
2023-02-06T23:46:32.422Z,6.83
2023-02-06T23:49:00.179Z,7.27
2023-02-06T23:51:29.129Z,8.33
2023-02-06T23:53:58.914Z,8.23
2023-02-06T23:56:28.635Z,7.30
2023-02-06T23:58:58.002Z,7.73
